Terminal Aerodrome Forecast
Issued by NWS El Paso, TX

Home | Current Version | Previous Version | Text Only | Print | Product List | Glossary On
Versions: 1 2 3 4 5 6 7 8 9 10 11 12 13 14
000
FTUS44 KEPZ 051100
TAFELP
TAF
KELP 051137Z 0512/0612 25010KT P6SM FEW110
     FM051600 25015G23KT P6SM FEW070
     FM060000 27012G22KT P6SM FEW250
     FM060400 25010KT P6SM SCT250=

USA.gov is the U.S. government's official web portal to all federal, state and local government web resources and services.